createdAt,value
2022-08-30T00:01:03.015Z,93604.84
2022-08-30T00:03:35.076Z,93601.41
2022-08-30T00:06:02.791Z,93603.97
2022-08-30T00:08:29.546Z,93598.31
2022-08-30T00:10:56.159Z,93601.69
2022-08-30T00:13:23.485Z,93609.22
2022-08-30T00:15:50.847Z,93594.50
2022-08-30T00:18:20.528Z,93587.84
2022-08-30T00:20:51.926Z,93586.28
2022-08-30T00:23:19.526Z,93590.91
2022-08-30T00:25:46.263Z,93593.06
2022-08-30T00:28:14.369Z,93592.91
2022-08-30T00:30:42.254Z,93588.91
2022-08-30T00:33:09.134Z,93574.22
2022-08-30T00:35:36.369Z,93598.25
2022-08-30T00:38:02.991Z,93597.75
2022-08-30T00:40:30.493Z,93596.78
2022-08-30T00:42:59.946Z,93589.16
2022-08-30T00:45:34.827Z,93593.00
2022-08-30T00:48:01.833Z,93580.16
2022-08-30T00:50:34.049Z,93595.88
2022-08-30T00:53:05.255Z,93595.13
2022-08-30T00:55:33.179Z,93598.34
2022-08-30T00:58:05.171Z,93586.72
2022-08-30T01:00:32.203Z,93607.09
2022-08-30T01:02:58.884Z,93582.56
2022-08-30T01:05:25.817Z,93582.78
2022-08-30T01:07:52.526Z,93602.44
2022-08-30T01:10:20.518Z,93607.25
2022-08-30T01:12:47.616Z,93600.88
2022-08-30T01:15:15.035Z,93590.28
2022-08-30T01:17:45.128Z,93597.53
2022-08-30T01:20:18.757Z,93613.84
2022-08-30T01:22:51.462Z,93605.84
2022-08-30T01:25:25.235Z,93607.78
2022-08-30T01:28:05.531Z,93609.69
2022-08-30T01:30:33.535Z,93609.59
2022-08-30T01:33:04.092Z,93605.81
2022-08-30T01:35:57.236Z,93603.09
2022-08-30T01:38:33.942Z,93605.25
2022-08-30T01:41:09.523Z,93606.66
2022-08-30T01:43:36.739Z,93602.53
2022-08-30T01:46:04.757Z,93605.97
2022-08-30T01:48:31.483Z,93603.47
2022-08-30T01:50:58.686Z,93607.91
2022-08-30T01:53:25.427Z,93605.41
2022-08-30T01:55:52.378Z,93610.00
2022-08-30T01:58:19.340Z,93590.41
2022-08-30T02:00:46.057Z,93607.34
2022-08-30T02:03:12.782Z,93573.97
2022-08-30T02:05:39.677Z,93599.16
2022-08-30T02:08:06.454Z,93601.13
2022-08-30T02:10:33.435Z,93604.03
2022-08-30T02:13:00.058Z,93581.47
2022-08-30T02:15:26.830Z,93588.53
2022-08-30T02:17:53.950Z,93599.28
2022-08-30T02:20:20.962Z,93597.72
2022-08-30T02:22:49.260Z,93573.63
2022-08-30T02:25:21.185Z,93579.84
2022-08-30T02:27:48.499Z,93575.09
2022-08-30T02:30:15.152Z,93590.13
2022-08-30T02:32:41.742Z,93574.09
2022-08-30T02:35:09.374Z,93587.53
2022-08-30T02:37:36.539Z,93572.44
2022-08-30T02:40:04.584Z,93587.06
2022-08-30T02:42:31.414Z,93576.44
2022-08-30T02:44:57.990Z,93580.72
2022-08-30T02:47:24.727Z,93575.09
2022-08-30T02:49:51.426Z,93569.88
2022-08-30T02:52:19.694Z,93583.31
2022-08-30T02:54:52.748Z,93579.72
2022-08-30T02:57:20.280Z,93581.44
2022-08-30T02:59:47.969Z,93575.97
2022-08-30T03:02:15.641Z,93570.31
2022-08-30T03:04:44.246Z,93548.09
2022-08-30T03:07:12.406Z,93570.78
2022-08-30T03:09:39.612Z,93564.63
2022-08-30T03:12:07.711Z,93578.38
2022-08-30T03:14:38.430Z,93549.84
2022-08-30T03:17:11.248Z,93573.59
2022-08-30T03:19:42.593Z,93573.53
2022-08-30T03:22:09.303Z,93567.09
2022-08-30T03:24:35.982Z,93563.59
2022-08-30T03:27:03.674Z,93575.13
2022-08-30T03:29:30.390Z,93573.03
2022-08-30T03:31:58.011Z,93569.28
2022-08-30T03:34:25.895Z,93547.44
2022-08-30T03:36:54.213Z,93562.09
2022-08-30T03:39:22.744Z,93564.88
2022-08-30T03:41:50.005Z,93561.75
2022-08-30T03:44:16.718Z,93524.97
2022-08-30T03:46:43.447Z,93559.53
2022-08-30T03:49:10.169Z,93553.34
2022-08-30T03:51:37.327Z,93548.53
2022-08-30T03:54:04.187Z,93564.19
2022-08-30T03:56:31.098Z,93565.53
2022-08-30T03:58:57.791Z,93565.09
2022-08-30T04:01:24.487Z,93567.44
2022-08-30T04:03:51.092Z,93569.94
2022-08-30T04:06:17.973Z,93570.13
2022-08-30T04:08:45.955Z,93571.94
2022-08-30T04:11:14.858Z,93576.38
2022-08-30T04:13:41.870Z,93569.19
2022-08-30T04:16:08.934Z,93556.56
2022-08-30T04:18:36.218Z,93566.22
2022-08-30T04:21:04.219Z,93586.00
2022-08-30T04:23:30.885Z,93568.22
2022-08-30T04:25:57.776Z,93559.34
2022-08-30T04:28:24.532Z,93585.53
2022-08-30T04:30:51.328Z,93586.28
2022-08-30T04:33:18.312Z,93580.97
2022-08-30T04:35:47.767Z,93594.00
2022-08-30T04:38:15.531Z,93592.31
2022-08-30T04:40:43.920Z,93596.53
2022-08-30T04:43:13.003Z,93596.66
2022-08-30T04:45:40.899Z,93597.19
2022-08-30T04:48:08.155Z,93599.38
2022-08-30T04:50:34.931Z,93596.53
2022-08-30T04:53:01.626Z,93597.72
2022-08-30T04:55:28.270Z,93593.69
2022-08-30T04:57:56.441Z,93593.28
2022-08-30T05:00:23.117Z,93583.81
2022-08-30T05:02:49.891Z,93597.88
2022-08-30T05:05:36.527Z,93604.84
2022-08-30T05:08:03.610Z,93608.53
2022-08-30T05:10:30.478Z,93608.19
2022-08-30T05:12:57.238Z,93603.16
2022-08-30T05:15:23.865Z,93608.72
2022-08-30T05:17:50.754Z,93620.69
2022-08-30T05:20:17.899Z,93622.22
2022-08-30T05:22:53.618Z,93611.19
2022-08-30T05:25:24.389Z,93627.63
2022-08-30T05:27:51.632Z,93622.78
2022-08-30T05:30:19.410Z,93594.59
2022-08-30T05:32:46.239Z,93600.03
2022-08-30T05:35:14.362Z,93620.81
2022-08-30T05:37:41.447Z,93605.22
2022-08-30T05:40:11.241Z,93592.19
2022-08-30T05:42:40.143Z,93611.78
2022-08-30T05:45:07.966Z,93605.69
2022-08-30T05:47:34.655Z,93603.69
2022-08-30T05:50:01.534Z,93584.03
2022-08-30T05:52:28.226Z,93591.59
2022-08-30T05:54:59.194Z,93585.03
2022-08-30T05:57:26.814Z,93588.97
2022-08-30T05:59:53.456Z,93589.63
2022-08-30T06:02:20.176Z,93579.84
2022-08-30T06:04:47.114Z,93576.03
2022-08-30T06:07:15.834Z,93573.06
2022-08-30T06:09:44.354Z,93570.22
2022-08-30T06:12:11.097Z,93570.00
2022-08-30T06:14:39.343Z,93560.59
2022-08-30T06:17:06.353Z,93566.88
2022-08-30T06:19:33.172Z,93562.09
2022-08-30T06:22:00.801Z,93560.94
2022-08-30T06:24:41.038Z,93541.84
2022-08-30T06:27:15.407Z,93517.28
2022-08-30T06:29:42.071Z,93547.34
2022-08-30T06:32:08.728Z,93538.78
2022-08-30T06:34:35.428Z,93527.66
2022-08-30T06:37:02.082Z,93513.53
2022-08-30T06:39:28.868Z,93520.19
2022-08-30T06:41:55.739Z,93506.94
2022-08-30T06:44:22.382Z,93507.59
2022-08-30T06:46:49.060Z,93484.09
2022-08-30T06:49:15.838Z,93504.34
2022-08-30T06:51:42.535Z,93504.75
2022-08-30T06:54:12.417Z,93490.22
2022-08-30T06:56:48.752Z,93497.56
2022-08-30T06:59:24.233Z,93480.75
2022-08-30T07:01:50.992Z,93492.66
2022-08-30T07:04:17.778Z,93495.16
2022-08-30T07:06:44.507Z,93504.00
2022-08-30T07:09:11.167Z,93499.53
2022-08-30T07:11:39.037Z,93474.81
2022-08-30T07:14:06.778Z,93497.91
2022-08-30T07:16:34.604Z,93493.91
2022-08-30T07:19:02.983Z,93479.25
2022-08-30T07:21:34.589Z,93488.88
2022-08-30T07:24:02.317Z,93491.03
2022-08-30T07:26:33.562Z,93494.41
2022-08-30T07:29:00.880Z,93500.09
2022-08-30T07:31:28.468Z,93500.28
2022-08-30T07:33:55.749Z,93512.28
2022-08-30T07:36:24.037Z,93505.72
2022-08-30T07:38:51.976Z,93513.97
2022-08-30T07:41:25.873Z,93515.91
2022-08-30T07:43:53.326Z,93519.47
2022-08-30T07:46:20.510Z,93525.16
2022-08-30T07:48:47.558Z,93517.19
2022-08-30T07:51:20.573Z,93524.28
2022-08-30T07:53:47.587Z,93513.50
2022-08-30T07:56:14.531Z,93514.31
2022-08-30T07:58:41.819Z,93507.19
2022-08-30T08:01:11.184Z,93513.97
2022-08-30T08:03:40.280Z,93515.38
2022-08-30T08:06:08.754Z,93515.00
2022-08-30T08:08:36.419Z,93520.94
2022-08-30T08:11:16.507Z,93515.31
2022-08-30T08:13:52.631Z,93504.19
2022-08-30T08:16:27.169Z,93502.69
2022-08-30T08:18:54.623Z,93520.53
2022-08-30T08:21:23.082Z,93519.50
2022-08-30T08:23:50.221Z,93530.84
2022-08-30T08:26:17.500Z,93523.31
2022-08-30T08:28:46.567Z,93529.94
2022-08-30T08:31:33.203Z,93526.63
2022-08-30T08:34:02.902Z,93511.78
2022-08-30T08:36:31.309Z,93504.59
2022-08-30T08:38:58.519Z,93516.19
2022-08-30T08:42:09.410Z,93506.47
2022-08-30T08:45:03.778Z,93516.91
2022-08-30T08:47:35.786Z,93514.16
2022-08-30T08:50:08.467Z,93511.75
2022-08-30T08:53:45.214Z,93519.59
2022-08-30T08:56:12.773Z,93509.03
2022-08-30T08:58:48.579Z,93511.03
2022-08-30T09:01:17.907Z,93501.09
2022-08-30T09:03:46.888Z,93485.59
2022-08-30T09:06:49.177Z,93509.09
2022-08-30T09:09:20.538Z,93506.38
2022-08-30T09:11:48.002Z,93506.94
2022-08-30T09:14:30.224Z,93509.38
2022-08-30T09:16:57.082Z,93505.09
2022-08-30T09:19:34.549Z,93506.47
2022-08-30T09:22:27.796Z,93491.91
2022-08-30T09:25:01.693Z,93492.97
2022-08-30T09:27:28.788Z,93492.44
2022-08-30T09:30:14.966Z,93489.19
2022-08-30T09:32:51.337Z,93491.31
2022-08-30T09:35:35.343Z,93481.81
2022-08-30T09:38:08.426Z,93481.00
2022-08-30T09:40:39.728Z,93478.81
2022-08-30T09:43:06.402Z,93479.41
2022-08-30T09:45:44.023Z,93475.66
2022-08-30T09:48:30.432Z,93478.28
2022-08-30T09:51:13.117Z,93474.03
2022-08-30T09:54:14.453Z,93481.06
2022-08-30T10:00:05.186Z,93477.16
2022-08-30T10:03:34.977Z,93472.81
2022-08-30T10:06:12.662Z,93463.69
2022-08-30T10:09:08.590Z,93462.22
2022-08-30T10:11:44.739Z,93456.53
2022-08-30T10:14:39.004Z,93462.44
2022-08-30T10:17:53.810Z,93459.72
2022-08-30T10:20:35.243Z,93451.38
2022-08-30T10:23:11.661Z,93453.63
2022-08-30T10:25:50.631Z,93453.34
2022-08-30T10:28:30.783Z,93454.22
2022-08-30T10:31:11.061Z,93448.66
2022-08-30T10:33:47.106Z,93455.63
2022-08-30T10:36:15.216Z,93442.44
2022-08-30T10:38:53.517Z,93451.47
2022-08-30T10:41:25.885Z,93456.06
2022-08-30T10:43:55.541Z,93447.88
2022-08-30T10:46:47.512Z,93451.19
2022-08-30T10:49:19.648Z,93435.00
2022-08-30T10:51:49.942Z,93437.13
2022-08-30T10:54:26.473Z,93428.84
2022-08-30T10:56:54.470Z,93436.09
2022-08-30T10:59:21.301Z,93429.41
2022-08-30T11:02:06.694Z,93446.34
2022-08-30T11:05:00.749Z,93443.31
2022-08-30T11:07:30.436Z,93433.69
2022-08-30T11:10:22.099Z,93443.66
2022-08-30T11:13:24.367Z,93437.34
2022-08-30T11:15:53.227Z,93434.19
2022-08-30T11:18:20.275Z,93434.59
2022-08-30T11:20:53.278Z,93433.66
2022-08-30T11:23:32.565Z,93427.09
2022-08-30T11:26:02.530Z,93420.91
2022-08-30T11:28:52.789Z,93412.84
2022-08-30T11:31:22.609Z,93419.59
2022-08-30T11:33:53.562Z,93424.25
2022-08-30T11:36:37.295Z,93411.09
2022-08-30T11:39:13.294Z,93410.66
2022-08-30T11:41:47.861Z,93408.34
2022-08-30T11:44:21.499Z,93405.94
2022-08-30T11:46:50.137Z,93394.94
2022-08-30T11:49:19.746Z,93404.19
2022-08-30T11:52:26.314Z,93394.81
2022-08-30T11:55:12.438Z,93391.09
2022-08-30T11:58:06.825Z,93395.25
2022-08-30T12:00:41.282Z,93393.78
2022-08-30T12:03:30.877Z,93387.84
2022-08-30T12:06:01.394Z,93388.25
2022-08-30T12:08:28.175Z,93386.44
2022-08-30T12:10:56.925Z,93388.91
2022-08-30T12:13:38.613Z,93385.09
2022-08-30T12:16:09.374Z,93377.28
2022-08-30T12:19:00.082Z,93376.97
2022-08-30T12:21:37.171Z,93352.50
2022-08-30T12:24:32.495Z,93364.97
2022-08-30T12:27:05.399Z,93370.56
2022-08-30T12:29:33.202Z,93362.88
2022-08-30T12:32:08.118Z,93369.44
2022-08-30T12:34:41.028Z,93364.59
2022-08-30T12:37:20.397Z,93356.53
2022-08-30T12:39:53.780Z,93343.13
2022-08-30T12:42:27.003Z,93336.22
2022-08-30T12:44:58.440Z,93360.97
2022-08-30T12:47:32.882Z,93365.63
2022-08-30T12:50:00.228Z,93357.03
2022-08-30T12:52:28.635Z,93362.88
2022-08-30T12:55:05.046Z,93358.06
2022-08-30T12:58:07.272Z,93358.69
2022-08-30T13:00:42.648Z,93337.59
2022-08-30T13:03:32.912Z,93351.59
2022-08-30T13:05:59.965Z,93332.25
2022-08-30T13:08:36.913Z,93337.13
2022-08-30T13:11:10.850Z,93343.00
2022-08-30T13:13:52.234Z,93329.47
2022-08-30T13:16:20.624Z,93336.16
2022-08-30T13:19:11.813Z,93332.94
2022-08-30T13:21:51.981Z,93314.00
2022-08-30T13:24:21.386Z,93311.34
2022-08-30T13:26:53.039Z,93316.31
2022-08-30T13:29:25.305Z,93309.16
2022-08-30T13:31:52.495Z,93311.56
2022-08-30T13:34:22.262Z,93277.84
2022-08-30T13:36:55.102Z,93299.84
2022-08-30T13:39:22.067Z,93298.31
2022-08-30T13:41:49.687Z,93290.53
2022-08-30T13:44:20.307Z,93294.56
2022-08-30T13:46:55.552Z,93293.13
2022-08-30T13:52:24.531Z,93300.06
2022-08-30T13:54:54.548Z,93296.56
2022-08-30T14:00:17.823Z,93306.13
2022-08-30T14:02:51.525Z,93310.56
2022-08-30T14:05:48.356Z,93300.38
2022-08-30T14:10:59.625Z,93315.16
2022-08-30T14:13:29.286Z,93294.56
2022-08-30T14:18:45.663Z,93306.44
2022-08-30T14:21:12.357Z,93286.16
2022-08-30T14:23:39.019Z,93304.69
2022-08-30T14:26:13.649Z,93306.81
2022-08-30T14:28:44.742Z,93300.28
2022-08-30T14:31:12.002Z,93307.34
2022-08-30T14:33:40.341Z,93305.72
2022-08-30T14:36:12.501Z,93311.59
2022-08-30T14:38:43.053Z,93311.94
2022-08-30T14:41:10.879Z,93322.00
2022-08-30T14:43:40.384Z,93301.97
2022-08-30T14:46:08.961Z,93330.09
2022-08-30T14:48:38.465Z,93337.19
2022-08-30T14:51:17.162Z,93330.47
2022-08-30T14:53:45.059Z,93344.78
2022-08-30T14:56:15.427Z,93324.97
2022-08-30T14:58:42.758Z,93333.47
2022-08-30T15:01:12.537Z,93338.09
2022-08-30T15:03:40.558Z,93331.91
2022-08-30T15:06:07.645Z,93335.50
2022-08-30T15:08:36.229Z,93330.59
2022-08-30T15:11:08.544Z,93331.03
2022-08-30T15:13:35.710Z,93332.34
2022-08-30T15:16:03.375Z,93349.03
2022-08-30T15:18:30.551Z,93364.94
2022-08-30T15:20:57.162Z,93367.91
2022-08-30T15:23:24.968Z,93373.38
2022-08-30T15:25:51.801Z,93387.09
2022-08-30T15:28:19.298Z,93376.50
2022-08-30T15:30:46.496Z,93374.75
2022-08-30T15:33:13.138Z,93358.06
2022-08-30T15:35:41.442Z,93386.53
2022-08-30T15:38:08.277Z,93393.56
2022-08-30T15:40:39.877Z,93422.50
2022-08-30T15:43:06.753Z,93418.25
2022-08-30T15:45:33.591Z,93436.00
2022-08-30T15:48:00.711Z,93449.06
2022-08-30T15:50:28.309Z,93450.00
2022-08-30T15:52:55.195Z,93470.47
2022-08-30T15:55:22.146Z,93471.84
2022-08-30T15:57:48.836Z,93466.16
2022-08-30T16:00:16.034Z,93437.56
2022-08-30T16:02:42.931Z,93449.69
2022-08-30T16:05:10.720Z,93412.03
2022-08-30T16:07:40.533Z,93399.34
2022-08-30T16:10:08.864Z,93382.78
2022-08-30T16:12:35.490Z,93371.63
2022-08-30T16:15:02.140Z,93387.88
2022-08-30T16:17:28.818Z,93388.00
2022-08-30T16:19:58.914Z,93397.47
2022-08-30T16:22:26.421Z,93402.91
2022-08-30T16:24:53.038Z,93392.19
2022-08-30T16:27:21.221Z,93406.81
2022-08-30T16:29:50.040Z,93412.97
2022-08-30T16:32:17.546Z,93427.22
2022-08-30T16:34:45.012Z,93425.84
2022-08-30T16:37:11.621Z,93422.41
2022-08-30T16:39:38.462Z,93429.88
2022-08-30T16:42:06.690Z,93424.97
2022-08-30T16:44:33.630Z,93427.16
2022-08-30T16:47:01.687Z,93438.75
2022-08-30T16:49:28.455Z,93437.97
2022-08-30T16:51:55.106Z,93440.75
2022-08-30T16:54:22.427Z,93437.06
2022-08-30T16:56:49.216Z,93432.81
2022-08-30T16:59:16.660Z,93425.00
2022-08-30T17:01:44.760Z,93421.38
2022-08-30T17:04:30.754Z,93426.06
2022-08-30T17:06:57.645Z,93424.69
2022-08-30T17:09:25.593Z,93428.56
2022-08-30T17:11:52.925Z,93430.78
2022-08-30T17:14:27.789Z,93431.22
2022-08-30T17:16:57.829Z,93438.75
2022-08-30T17:22:13.219Z,93444.94
2022-08-30T17:24:41.063Z,93451.63
2022-08-30T17:27:07.971Z,93454.03
2022-08-30T17:29:34.674Z,93464.59
2022-08-30T17:32:01.395Z,93452.88
2022-08-30T17:34:28.041Z,93462.81
2022-08-30T17:36:57.038Z,93466.53
2022-08-30T17:39:25.172Z,93452.88
2022-08-30T17:41:52.760Z,93469.38
2022-08-30T17:44:25.586Z,93465.06
2022-08-30T17:46:53.012Z,93470.22
2022-08-30T17:49:19.677Z,93477.44
2022-08-30T17:51:47.734Z,93479.22
2022-08-30T17:54:14.859Z,93467.50
2022-08-30T17:56:42.562Z,93439.59
2022-08-30T17:59:13.545Z,93472.34
2022-08-30T18:01:41.622Z,93469.22
2022-08-30T18:04:10.446Z,93474.13
2022-08-30T18:06:37.082Z,93470.56
2022-08-30T18:09:08.130Z,93460.63
2022-08-30T18:11:36.728Z,93481.81
2022-08-30T18:14:04.489Z,93481.84
2022-08-30T18:16:33.525Z,93486.34
2022-08-30T18:19:03.782Z,93472.50
2022-08-30T18:21:30.435Z,93468.44
2022-08-30T18:23:57.114Z,93482.84
2022-08-30T18:26:24.553Z,93490.69
2022-08-30T18:28:52.007Z,93497.50
2022-08-30T18:31:18.679Z,93489.69
2022-08-30T18:33:46.898Z,93526.13
2022-08-30T18:36:13.610Z,93529.28
2022-08-30T18:38:42.444Z,93540.41
2022-08-30T18:41:13.775Z,93554.72
2022-08-30T18:43:40.385Z,93580.31
2022-08-30T18:46:10.366Z,93598.31
2022-08-30T18:48:39.173Z,93614.69
2022-08-30T18:51:13.222Z,93617.16
2022-08-30T18:53:40.014Z,93613.34
2022-08-30T18:56:07.798Z,93648.97
2022-08-30T18:58:35.339Z,93644.13
2022-08-30T19:01:03.492Z,93645.78
2022-08-30T19:03:33.029Z,93639.97
2022-08-30T19:06:05.814Z,93653.16
2022-08-30T19:08:34.459Z,93654.38
2022-08-30T19:11:04.825Z,93653.63
2022-08-30T19:13:31.623Z,93655.06
2022-08-30T19:15:58.963Z,93650.06
2022-08-30T19:18:25.646Z,93664.47
2022-08-30T19:20:52.245Z,93663.06
2022-08-30T19:23:18.960Z,93681.88
2022-08-30T19:25:46.198Z,93683.03
2022-08-30T19:28:18.965Z,93692.72
2022-08-30T19:30:45.609Z,93684.16
2022-08-30T19:33:12.551Z,93705.09
2022-08-30T19:35:39.261Z,93699.72
2022-08-30T19:38:06.054Z,93706.72
2022-08-30T19:40:32.792Z,93709.63
2022-08-30T19:42:59.794Z,93700.91
2022-08-30T19:45:26.674Z,93690.56
2022-08-30T19:47:53.475Z,93678.88
2022-08-30T19:50:22.338Z,93683.41
2022-08-30T19:52:54.259Z,93682.72
2022-08-30T19:55:28.145Z,93676.91
2022-08-30T19:57:56.621Z,93683.28
2022-08-30T20:00:23.498Z,93684.00
2022-08-30T20:02:50.775Z,93661.59
2022-08-30T20:05:18.195Z,93681.97
2022-08-30T20:07:45.178Z,93675.66
2022-08-30T20:10:15.294Z,93662.03
2022-08-30T20:12:46.901Z,93682.19
2022-08-30T20:15:17.379Z,93667.16
2022-08-30T20:18:03.448Z,93666.72
2022-08-30T20:20:32.406Z,93666.84
2022-08-30T20:23:00.461Z,93671.09
2022-08-30T20:24:23.646Z,93445.03
2022-08-30T20:25:28.804Z,93666.06
2022-08-30T20:27:55.951Z,93646.84
2022-08-30T20:30:22.692Z,93675.19
2022-08-30T20:32:49.581Z,93660.59
2022-08-30T20:35:17.057Z,93671.91
2022-08-30T20:37:44.340Z,93674.72
2022-08-30T20:40:15.586Z,93669.09
2022-08-30T20:42:45.592Z,93663.97
2022-08-30T20:45:17.215Z,93642.56
2022-08-30T20:47:44.213Z,93648.38
2022-08-30T20:50:14.140Z,93634.06
2022-08-30T20:52:41.568Z,93630.22
2022-08-30T20:55:09.986Z,93634.16
2022-08-30T20:57:37.290Z,93621.81
2022-08-30T21:00:10.786Z,93623.41
2022-08-30T21:02:42.663Z,93630.69
2022-08-30T21:05:15.332Z,93616.34
2022-08-30T21:07:43.276Z,93617.72
2022-08-30T21:10:11.204Z,93605.56
2022-08-30T21:12:38.094Z,93599.72
2022-08-30T21:15:26.824Z,93600.66
2022-08-30T21:17:52.446Z,93576.44
2022-08-30T21:20:19.225Z,93582.84
2022-08-30T21:22:45.793Z,93583.75
2022-08-30T21:25:12.703Z,93581.41
2022-08-30T21:27:39.322Z,93599.00
2022-08-30T21:30:06.350Z,93601.53
2022-08-30T21:32:33.115Z,93591.19
2022-08-30T21:35:18.017Z,93590.13
2022-08-30T21:37:44.653Z,93587.69
2022-08-30T21:40:14.956Z,93596.50
2022-08-30T21:42:41.967Z,93593.25
2022-08-30T21:45:09.229Z,93581.28
2022-08-30T21:47:36.578Z,93577.44
2022-08-30T21:50:03.833Z,93586.69
2022-08-30T21:52:30.721Z,93582.03
2022-08-30T21:54:57.427Z,93586.63
2022-08-30T21:57:24.734Z,93574.78
2022-08-30T21:59:51.506Z,93574.53
2022-08-30T22:02:18.115Z,93575.84
2022-08-30T22:04:44.903Z,93576.19
2022-08-30T22:07:11.627Z,93551.66
2022-08-30T22:09:38.365Z,93566.47
2022-08-30T22:12:06.865Z,93550.94
2022-08-30T22:14:35.571Z,93563.19
2022-08-30T22:17:02.279Z,93576.66
2022-08-30T22:19:28.924Z,93579.44
2022-08-30T22:22:00.580Z,93566.25
2022-08-30T22:24:32.000Z,93578.25
2022-08-30T22:27:03.750Z,93571.28
2022-08-30T22:29:30.644Z,93571.50
2022-08-30T22:31:58.543Z,93581.84
2022-08-30T22:34:25.937Z,93581.81
2022-08-30T22:36:52.627Z,93583.63
2022-08-30T22:39:19.419Z,93566.50
2022-08-30T22:41:46.086Z,93585.22
2022-08-30T22:44:13.342Z,93579.09
2022-08-30T22:46:40.530Z,93596.31
2022-08-30T22:49:08.987Z,93575.69
2022-08-30T22:51:36.721Z,93567.19
2022-08-30T22:54:05.110Z,93577.22
2022-08-30T22:56:34.710Z,93572.56
2022-08-30T22:59:02.494Z,93575.94
2022-08-30T23:01:32.754Z,93551.84
2022-08-30T23:04:01.062Z,93561.72
2022-08-30T23:06:29.020Z,93554.19
2022-08-30T23:08:56.158Z,93559.53
2022-08-30T23:11:23.081Z,93563.84
2022-08-30T23:13:49.829Z,93567.19
2022-08-30T23:16:17.606Z,93570.13
2022-08-30T23:18:46.057Z,93563.50
2022-08-30T23:21:19.925Z,93565.25
2022-08-30T23:24:05.835Z,93553.25
2022-08-30T23:26:51.187Z,93554.09
2022-08-30T23:29:36.311Z,93560.47
2022-08-30T23:32:22.054Z,93560.81
2022-08-30T23:35:07.499Z,93518.16
2022-08-30T23:37:53.214Z,93532.78
2022-08-30T23:40:39.545Z,93558.59
2022-08-30T23:43:25.301Z,93535.81
2022-08-30T23:46:10.513Z,93555.53
2022-08-30T23:49:00.505Z,93564.19
2022-08-30T23:51:45.564Z,93573.25
2022-08-30T23:54:30.899Z,93569.41
2022-08-30T23:57:16.042Z,93566.28
